sensor_id;sensor_type;location;lat;lon;timestamp;P1;durP1;ratioP1;P2;durP2;ratioP2
44774;SDS011;31340;51.402;0.016;2023-07-30T00:01:37;15.88;;;2.42;;
44774;SDS011;31340;51.402;0.016;2023-07-30T00:04:05;10.45;;;2.47;;
44774;SDS011;31340;51.402;0.016;2023-07-30T00:06:33;12.70;;;2.67;;
44774;SDS011;31340;51.402;0.016;2023-07-30T00:09:01;8.77;;;2.65;;
44774;SDS011;31340;51.402;0.016;2023-07-30T00:11:29;16.00;;;3.10;;
44774;SDS011;31340;51.402;0.016;2023-07-30T00:13:57;15.40;;;2.67;;
44774;SDS011;31340;51.402;0.016;2023-07-30T00:16:25;13.60;;;3.20;;
44774;SDS011;31340;51.402;0.016;2023-07-30T00:18:53;13.70;;;3.00;;
44774;SDS011;31340;51.402;0.016;2023-07-30T00:21:21;20.05;;;3.72;;
44774;SDS011;31340;51.402;0.016;2023-07-30T00:23:48;13.48;;;3.10;;
44774;SDS011;31340;51.402;0.016;2023-07-30T00:26:16;15.85;;;3.47;;
44774;SDS011;31340;51.402;0.016;2023-07-30T00:28:44;12.98;;;3.45;;
44774;SDS011;31340;51.402;0.016;2023-07-30T00:31:11;13.32;;;2.72;;
44774;SDS011;31340;51.402;0.016;2023-07-30T00:33:39;12.13;;;3.40;;
44774;SDS011;31340;51.402;0.016;2023-07-30T00:36:07;13.32;;;3.30;;
44774;SDS011;31340;51.402;0.016;2023-07-30T00:38:34;12.43;;;3.10;;
44774;SDS011;31340;51.402;0.016;2023-07-30T00:41:02;17.63;;;3.25;;
44774;SDS011;31340;51.402;0.016;2023-07-30T00:43:30;12.70;;;2.90;;
44774;SDS011;31340;51.402;0.016;2023-07-30T00:45:57;16.98;;;2.95;;
44774;SDS011;31340;51.402;0.016;2023-07-30T00:48:25;14.85;;;3.50;;
44774;SDS011;31340;51.402;0.016;2023-07-30T00:50:53;13.50;;;3.00;;
44774;SDS011;31340;51.402;0.016;2023-07-30T00:53:22;21.63;;;3.30;;
44774;SDS011;31340;51.402;0.016;2023-07-30T00:55:54;17.42;;;3.80;;
44774;SDS011;31340;51.402;0.016;2023-07-30T00:58:22;16.67;;;3.10;;
44774;SDS011;31340;51.402;0.016;2023-07-30T01:00:51;18.00;;;3.50;;
44774;SDS011;31340;51.402;0.016;2023-07-30T01:03:21;12.05;;;3.33;;
44774;SDS011;31340;51.402;0.016;2023-07-30T01:05:50;16.42;;;3.55;;
44774;SDS011;31340;51.402;0.016;2023-07-30T01:08:18;17.92;;;3.30;;
44774;SDS011;31340;51.402;0.016;2023-07-30T01:10:46;18.83;;;3.22;;
44774;SDS011;31340;51.402;0.016;2023-07-30T01:13:14;12.82;;;3.17;;
44774;SDS011;31340;51.402;0.016;2023-07-30T01:15:43;15.57;;;2.95;;
44774;SDS011;31340;51.402;0.016;2023-07-30T01:18:12;15.40;;;3.17;;
44774;SDS011;31340;51.402;0.016;2023-07-30T01:20:39;11.48;;;2.70;;
44774;SDS011;31340;51.402;0.016;2023-07-30T01:23:07;13.45;;;3.90;;
44774;SDS011;31340;51.402;0.016;2023-07-30T01:25:36;17.02;;;2.55;;
44774;SDS011;31340;51.402;0.016;2023-07-30T01:28:05;11.88;;;3.03;;
44774;SDS011;31340;51.402;0.016;2023-07-30T01:30:37;10.15;;;2.20;;
44774;SDS011;31340;51.402;0.016;2023-07-30T01:33:08;14.88;;;2.90;;
44774;SDS011;31340;51.402;0.016;2023-07-30T01:35:37;12.95;;;3.67;;
44774;SDS011;31340;51.402;0.016;2023-07-30T01:38:06;18.30;;;3.25;;
44774;SDS011;31340;51.402;0.016;2023-07-30T01:40:35;14.00;;;2.83;;
44774;SDS011;31340;51.402;0.016;2023-07-30T01:43:03;15.40;;;2.72;;
44774;SDS011;31340;51.402;0.016;2023-07-30T01:45:30;14.25;;;3.28;;
44774;SDS011;31340;51.402;0.016;2023-07-30T01:47:58;14.05;;;2.58;;
44774;SDS011;31340;51.402;0.016;2023-07-30T01:50:26;12.55;;;2.97;;
44774;SDS011;31340;51.402;0.016;2023-07-30T01:52:54;13.90;;;2.92;;
44774;SDS011;31340;51.402;0.016;2023-07-30T01:55:22;12.25;;;2.85;;
44774;SDS011;31340;51.402;0.016;2023-07-30T01:57:50;16.23;;;2.85;;
44774;SDS011;31340;51.402;0.016;2023-07-30T02:00:18;15.50;;;2.83;;
44774;SDS011;31340;51.402;0.016;2023-07-30T02:02:45;19.10;;;3.22;;
44774;SDS011;31340;51.402;0.016;2023-07-30T02:05:13;11.27;;;2.70;;
44774;SDS011;31340;51.402;0.016;2023-07-30T02:07:44;15.13;;;2.85;;
44774;SDS011;31340;51.402;0.016;2023-07-30T02:10:12;11.68;;;2.50;;
44774;SDS011;31340;51.402;0.016;2023-07-30T02:12:39;13.07;;;3.03;;
44774;SDS011;31340;51.402;0.016;2023-07-30T02:15:08;12.20;;;2.63;;
44774;SDS011;31340;51.402;0.016;2023-07-30T02:17:36;14.35;;;3.63;;
44774;SDS011;31340;51.402;0.016;2023-07-30T02:20:03;13.98;;;2.42;;
44774;SDS011;31340;51.402;0.016;2023-07-30T02:22:32;10.30;;;2.05;;
44774;SDS011;31340;51.402;0.016;2023-07-30T02:25:00;10.50;;;2.53;;
44774;SDS011;31340;51.402;0.016;2023-07-30T02:27:28;18.33;;;3.00;;
44774;SDS011;31340;51.402;0.016;2023-07-30T02:29:56;11.50;;;2.58;;
44774;SDS011;31340;51.402;0.016;2023-07-30T02:32:24;8.20;;;2.60;;
44774;SDS011;31340;51.402;0.016;2023-07-30T02:34:51;12.43;;;2.78;;
44774;SDS011;31340;51.402;0.016;2023-07-30T02:37:19;12.98;;;2.50;;
44774;SDS011;31340;51.402;0.016;2023-07-30T02:39:47;9.55;;;2.40;;
44774;SDS011;31340;51.402;0.016;2023-07-30T02:42:15;12.70;;;2.53;;
44774;SDS011;31340;51.402;0.016;2023-07-30T02:44:42;11.18;;;2.28;;
44774;SDS011;31340;51.402;0.016;2023-07-30T02:47:10;16.58;;;2.60;;
44774;SDS011;31340;51.402;0.016;2023-07-30T02:49:38;15.95;;;2.92;;
44774;SDS011;31340;51.402;0.016;2023-07-30T02:52:06;12.20;;;2.08;;
44774;SDS011;31340;51.402;0.016;2023-07-30T02:54:34;12.35;;;2.40;;
44774;SDS011;31340;51.402;0.016;2023-07-30T02:57:02;8.55;;;2.13;;
44774;SDS011;31340;51.402;0.016;2023-07-30T02:59:29;8.32;;;2.10;;
44774;SDS011;31340;51.402;0.016;2023-07-30T03:01:57;7.95;;;1.92;;
44774;SDS011;31340;51.402;0.016;2023-07-30T03:04:25;10.98;;;1.98;;
44774;SDS011;31340;51.402;0.016;2023-07-30T03:06:53;12.48;;;2.42;;
44774;SDS011;31340;51.402;0.016;2023-07-30T03:09:20;13.48;;;2.38;;
44774;SDS011;31340;51.402;0.016;2023-07-30T03:11:49;14.60;;;2.20;;
44774;SDS011;31340;51.402;0.016;2023-07-30T03:14:17;11.88;;;3.63;;
44774;SDS011;31340;51.402;0.016;2023-07-30T03:16:48;8.07;;;2.55;;
44774;SDS011;31340;51.402;0.016;2023-07-30T03:19:16;8.32;;;1.80;;
44774;SDS011;31340;51.402;0.016;2023-07-30T03:21:44;8.13;;;1.80;;
44774;SDS011;31340;51.402;0.016;2023-07-30T03:24:12;9.32;;;2.33;;
44774;SDS011;31340;51.402;0.016;2023-07-30T03:26:39;8.25;;;1.70;;
44774;SDS011;31340;51.402;0.016;2023-07-30T03:29:07;6.47;;;1.58;;
44774;SDS011;31340;51.402;0.016;2023-07-30T03:31:35;10.38;;;1.85;;
44774;SDS011;31340;51.402;0.016;2023-07-30T03:34:02;9.18;;;2.03;;
44774;SDS011;31340;51.402;0.016;2023-07-30T03:36:30;7.10;;;2.05;;
44774;SDS011;31340;51.402;0.016;2023-07-30T03:38:58;7.90;;;1.83;;
44774;SDS011;31340;51.402;0.016;2023-07-30T03:41:26;8.98;;;1.95;;
44774;SDS011;31340;51.402;0.016;2023-07-30T03:43:53;8.82;;;1.88;;
44774;SDS011;31340;51.402;0.016;2023-07-30T03:46:21;6.43;;;1.90;;
44774;SDS011;31340;51.402;0.016;2023-07-30T03:48:48;6.40;;;1.63;;
44774;SDS011;31340;51.402;0.016;2023-07-30T03:51:16;5.97;;;1.70;;
44774;SDS011;31340;51.402;0.016;2023-07-30T03:53:44;10.90;;;1.90;;
44774;SDS011;31340;51.402;0.016;2023-07-30T03:56:12;7.22;;;1.77;;
44774;SDS011;31340;51.402;0.016;2023-07-30T03:58:39;10.20;;;1.83;;
44774;SDS011;31340;51.402;0.016;2023-07-30T04:01:07;11.27;;;2.35;;
44774;SDS011;31340;51.402;0.016;2023-07-30T04:03:36;7.80;;;1.65;;
44774;SDS011;31340;51.402;0.016;2023-07-30T04:06:04;6.45;;;1.77;;
44774;SDS011;31340;51.402;0.016;2023-07-30T04:08:31;8.50;;;2.13;;
44774;SDS011;31340;51.402;0.016;2023-07-30T04:10:59;8.02;;;1.95;;
44774;SDS011;31340;51.402;0.016;2023-07-30T04:13:27;9.98;;;2.03;;
44774;SDS011;31340;51.402;0.016;2023-07-30T04:15:55;9.88;;;1.92;;
44774;SDS011;31340;51.402;0.016;2023-07-30T04:18:22;6.72;;;1.55;;
44774;SDS011;31340;51.402;0.016;2023-07-30T04:20:50;11.13;;;2.40;;
44774;SDS011;31340;51.402;0.016;2023-07-30T04:23:18;11.52;;;2.33;;
44774;SDS011;31340;51.402;0.016;2023-07-30T04:25:45;11.20;;;2.00;;
44774;SDS011;31340;51.402;0.016;2023-07-30T04:28:17;8.07;;;1.52;;
44774;SDS011;31340;51.402;0.016;2023-07-30T04:30:46;10.98;;;2.42;;
44774;SDS011;31340;51.402;0.016;2023-07-30T04:33:16;12.98;;;1.90;;
44774;SDS011;31340;51.402;0.016;2023-07-30T04:35:44;9.75;;;2.10;;
44774;SDS011;31340;51.402;0.016;2023-07-30T04:38:12;9.75;;;1.77;;
44774;SDS011;31340;51.402;0.016;2023-07-30T04:40:41;12.68;;;2.00;;
44774;SDS011;31340;51.402;0.016;2023-07-30T04:43:08;10.02;;;2.33;;
44774;SDS011;31340;51.402;0.016;2023-07-30T04:45:37;8.80;;;1.85;;
44774;SDS011;31340;51.402;0.016;2023-07-30T04:48:05;13.35;;;2.72;;
44774;SDS011;31340;51.402;0.016;2023-07-30T04:50:33;6.63;;;1.60;;
44774;SDS011;31340;51.402;0.016;2023-07-30T04:53:00;5.38;;;1.73;;
44774;SDS011;31340;51.402;0.016;2023-07-30T04:55:28;10.52;;;1.80;;
44774;SDS011;31340;51.402;0.016;2023-07-30T04:57:56;10.65;;;2.05;;
44774;SDS011;31340;51.402;0.016;2023-07-30T05:00:24;10.50;;;1.58;;
44774;SDS011;31340;51.402;0.016;2023-07-30T05:02:52;10.93;;;2.13;;
44774;SDS011;31340;51.402;0.016;2023-07-30T05:05:20;9.73;;;1.77;;
44774;SDS011;31340;51.402;0.016;2023-07-30T05:07:47;7.18;;;1.73;;
44774;SDS011;31340;51.402;0.016;2023-07-30T05:10:15;14.25;;;2.58;;
44774;SDS011;31340;51.402;0.016;2023-07-30T05:12:43;16.40;;;2.13;;
44774;SDS011;31340;51.402;0.016;2023-07-30T05:15:11;11.23;;;2.03;;
44774;SDS011;31340;51.402;0.016;2023-07-30T05:17:39;9.95;;;1.98;;
44774;SDS011;31340;51.402;0.016;2023-07-30T05:20:07;13.18;;;2.33;;
44774;SDS011;31340;51.402;0.016;2023-07-30T05:22:35;9.80;;;2.10;;
44774;SDS011;31340;51.402;0.016;2023-07-30T05:25:03;15.07;;;2.58;;
44774;SDS011;31340;51.402;0.016;2023-07-30T05:27:31;12.93;;;2.47;;
44774;SDS011;31340;51.402;0.016;2023-07-30T05:29:59;12.38;;;2.22;;
44774;SDS011;31340;51.402;0.016;2023-07-30T05:32:26;12.07;;;2.38;;
44774;SDS011;31340;51.402;0.016;2023-07-30T05:34:54;16.10;;;2.85;;
44774;SDS011;31340;51.402;0.016;2023-07-30T05:37:22;9.13;;;1.65;;
44774;SDS011;31340;51.402;0.016;2023-07-30T05:39:50;11.02;;;2.28;;
44774;SDS011;31340;51.402;0.016;2023-07-30T05:42:17;9.98;;;2.45;;
44774;SDS011;31340;51.402;0.016;2023-07-30T05:44:45;9.60;;;2.08;;
44774;SDS011;31340;51.402;0.016;2023-07-30T05:47:13;19.67;;;2.88;;
44774;SDS011;31340;51.402;0.016;2023-07-30T05:49:40;10.95;;;1.90;;
44774;SDS011;31340;51.402;0.016;2023-07-30T05:52:08;11.27;;;2.30;;
44774;SDS011;31340;51.402;0.016;2023-07-30T05:54:36;8.68;;;1.80;;
44774;SDS011;31340;51.402;0.016;2023-07-30T05:57:03;11.30;;;2.03;;
44774;SDS011;31340;51.402;0.016;2023-07-30T05:59:31;13.50;;;2.75;;
44774;SDS011;31340;51.402;0.016;2023-07-30T06:02:01;11.60;;;2.08;;
44774;SDS011;31340;51.402;0.016;2023-07-30T06:04:30;14.05;;;2.30;;
44774;SDS011;31340;51.402;0.016;2023-07-30T06:07:02;12.98;;;2.63;;
44774;SDS011;31340;51.402;0.016;2023-07-30T06:09:30;8.35;;;2.20;;
44774;SDS011;31340;51.402;0.016;2023-07-30T06:11:58;8.82;;;1.75;;
44774;SDS011;31340;51.402;0.016;2023-07-30T06:14:26;12.25;;;2.30;;
44774;SDS011;31340;51.402;0.016;2023-07-30T06:16:54;11.05;;;2.67;;
44774;SDS011;31340;51.402;0.016;2023-07-30T06:19:22;15.82;;;2.78;;
44774;SDS011;31340;51.402;0.016;2023-07-30T06:21:50;15.20;;;2.50;;
44774;SDS011;31340;51.402;0.016;2023-07-30T06:24:18;15.45;;;3.40;;
44774;SDS011;31340;51.402;0.016;2023-07-30T06:26:45;11.27;;;2.17;;
44774;SDS011;31340;51.402;0.016;2023-07-30T06:29:13;10.20;;;2.20;;
44774;SDS011;31340;51.402;0.016;2023-07-30T06:31:40;11.63;;;2.67;;
44774;SDS011;31340;51.402;0.016;2023-07-30T06:34:08;10.70;;;2.42;;
44774;SDS011;31340;51.402;0.016;2023-07-30T06:36:35;13.40;;;2.92;;
44774;SDS011;31340;51.402;0.016;2023-07-30T06:39:03;10.85;;;2.28;;
44774;SDS011;31340;51.402;0.016;2023-07-30T06:41:30;11.25;;;2.10;;
44774;SDS011;31340;51.402;0.016;2023-07-30T06:43:59;15.23;;;2.50;;
44774;SDS011;31340;51.402;0.016;2023-07-30T06:46:26;14.23;;;2.67;;
44774;SDS011;31340;51.402;0.016;2023-07-30T06:48:54;11.63;;;2.00;;
44774;SDS011;31340;51.402;0.016;2023-07-30T06:51:24;11.95;;;2.25;;
44774;SDS011;31340;51.402;0.016;2023-07-30T06:56:20;12.55;;;2.05;;
44774;SDS011;31340;51.402;0.016;2023-07-30T06:58:47;14.23;;;2.05;;
44774;SDS011;31340;51.402;0.016;2023-07-30T07:01:15;12.02;;;2.00;;
44774;SDS011;31340;51.402;0.016;2023-07-30T07:03:43;9.57;;;2.00;;
44774;SDS011;31340;51.402;0.016;2023-07-30T07:06:10;12.43;;;2.55;;
44774;SDS011;31340;51.402;0.016;2023-07-30T07:08:38;12.15;;;2.30;;
44774;SDS011;31340;51.402;0.016;2023-07-30T07:11:06;8.98;;;2.35;;
44774;SDS011;31340;51.402;0.016;2023-07-30T07:13:33;11.93;;;2.20;;
44774;SDS011;31340;51.402;0.016;2023-07-30T07:16:01;11.05;;;1.90;;
44774;SDS011;31340;51.402;0.016;2023-07-30T07:18:30;13.77;;;2.35;;
44774;SDS011;31340;51.402;0.016;2023-07-30T07:20:57;9.40;;;2.03;;
44774;SDS011;31340;51.402;0.016;2023-07-30T07:23:25;8.32;;;1.83;;
44774;SDS011;31340;51.402;0.016;2023-07-30T07:25:53;12.95;;;2.47;;
44774;SDS011;31340;51.402;0.016;2023-07-30T07:28:20;10.38;;;2.13;;
44774;SDS011;31340;51.402;0.016;2023-07-30T07:30:48;12.63;;;2.30;;
44774;SDS011;31340;51.402;0.016;2023-07-30T07:33:16;10.00;;;1.77;;
44774;SDS011;31340;51.402;0.016;2023-07-30T07:35:43;9.70;;;1.92;;
44774;SDS011;31340;51.402;0.016;2023-07-30T07:38:11;7.50;;;2.17;;
44774;SDS011;31340;51.402;0.016;2023-07-30T07:40:38;9.68;;;2.47;;
44774;SDS011;31340;51.402;0.016;2023-07-30T07:43:07;10.93;;;2.20;;
44774;SDS011;31340;51.402;0.016;2023-07-30T07:45:35;16.35;;;2.55;;
44774;SDS011;31340;51.402;0.016;2023-07-30T07:48:03;8.98;;;2.08;;
44774;SDS011;31340;51.402;0.016;2023-07-30T07:50:31;13.00;;;2.17;;
44774;SDS011;31340;51.402;0.016;2023-07-30T07:52:59;12.48;;;1.77;;
44774;SDS011;31340;51.402;0.016;2023-07-30T07:55:26;12.95;;;1.90;;
44774;SDS011;31340;51.402;0.016;2023-07-30T07:57:54;9.77;;;1.95;;
44774;SDS011;31340;51.402;0.016;2023-07-30T08:00:22;8.90;;;1.88;;
44774;SDS011;31340;51.402;0.016;2023-07-30T08:02:50;10.82;;;2.13;;
44774;SDS011;31340;51.402;0.016;2023-07-30T08:05:18;12.55;;;2.30;;
44774;SDS011;31340;51.402;0.016;2023-07-30T08:07:47;11.93;;;2.30;;
44774;SDS011;31340;51.402;0.016;2023-07-30T08:10:14;15.50;;;2.65;;
44774;SDS011;31340;51.402;0.016;2023-07-30T08:12:42;8.02;;;2.00;;
44774;SDS011;31340;51.402;0.016;2023-07-30T08:15:10;12.90;;;2.05;;
44774;SDS011;31340;51.402;0.016;2023-07-30T08:17:37;7.55;;;1.70;;
44774;SDS011;31340;51.402;0.016;2023-07-30T08:20:05;11.75;;;2.08;;
44774;SDS011;31340;51.402;0.016;2023-07-30T08:22:33;6.30;;;1.55;;
44774;SDS011;31340;51.402;0.016;2023-07-30T08:25:01;11.30;;;1.50;;
44774;SDS011;31340;51.402;0.016;2023-07-30T08:27:30;5.50;;;1.50;;
44774;SDS011;31340;51.402;0.016;2023-07-30T08:29:57;7.93;;;1.95;;
44774;SDS011;31340;51.402;0.016;2023-07-30T08:32:25;8.43;;;1.85;;
44774;SDS011;31340;51.402;0.016;2023-07-30T08:34:52;8.52;;;1.52;;
44774;SDS011;31340;51.402;0.016;2023-07-30T08:37:20;4.63;;;1.58;;
44774;SDS011;31340;51.402;0.016;2023-07-30T08:39:48;10.82;;;1.90;;
44774;SDS011;31340;51.402;0.016;2023-07-30T08:42:16;7.63;;;1.60;;
44774;SDS011;31340;51.402;0.016;2023-07-30T08:44:45;7.47;;;1.52;;
44774;SDS011;31340;51.402;0.016;2023-07-30T08:47:12;6.80;;;1.80;;
44774;SDS011;31340;51.402;0.016;2023-07-30T08:49:41;4.68;;;1.30;;
44774;SDS011;31340;51.402;0.016;2023-07-30T08:52:09;7.72;;;1.70;;
44774;SDS011;31340;51.402;0.016;2023-07-30T08:54:38;7.30;;;2.08;;
44774;SDS011;31340;51.402;0.016;2023-07-30T08:57:06;8.95;;;1.60;;
44774;SDS011;31340;51.402;0.016;2023-07-30T08:59:37;7.63;;;1.85;;
44774;SDS011;31340;51.402;0.016;2023-07-30T09:02:13;6.05;;;1.95;;
44774;SDS011;31340;51.402;0.016;2023-07-30T09:04:51;6.85;;;1.77;;
44774;SDS011;31340;51.402;0.016;2023-07-30T09:07:26;5.18;;;1.58;;
44774;SDS011;31340;51.402;0.016;2023-07-30T09:12:31;8.90;;;1.73;;
44774;SDS011;31340;51.402;0.016;2023-07-30T09:15:01;10.75;;;1.70;;
44774;SDS011;31340;51.402;0.016;2023-07-30T09:17:30;10.25;;;1.65;;
44774;SDS011;31340;51.402;0.016;2023-07-30T09:20:01;9.85;;;1.92;;
44774;SDS011;31340;51.402;0.016;2023-07-30T09:22:33;6.70;;;2.10;;
44774;SDS011;31340;51.402;0.016;2023-07-30T09:25:07;9.05;;;2.00;;
44774;SDS011;31340;51.402;0.016;2023-07-30T09:27:36;10.20;;;2.60;;
44774;SDS011;31340;51.402;0.016;2023-07-30T09:30:04;7.65;;;1.77;;
44774;SDS011;31340;51.402;0.016;2023-07-30T09:32:33;13.13;;;1.90;;
44774;SDS011;31340;51.402;0.016;2023-07-30T09:35:09;10.68;;;2.45;;
44774;SDS011;31340;51.402;0.016;2023-07-30T09:37:38;7.90;;;1.90;;
44774;SDS011;31340;51.402;0.016;2023-07-30T09:40:08;6.20;;;1.80;;
44774;SDS011;31340;51.402;0.016;2023-07-30T09:42:43;9.20;;;1.83;;
44774;SDS011;31340;51.402;0.016;2023-07-30T09:45:17;12.25;;;1.98;;
44774;SDS011;31340;51.402;0.016;2023-07-30T09:47:49;8.65;;;1.88;;
44774;SDS011;31340;51.402;0.016;2023-07-30T09:50:19;7.07;;;1.77;;
44774;SDS011;31340;51.402;0.016;2023-07-30T09:52:47;7.55;;;1.90;;
44774;SDS011;31340;51.402;0.016;2023-07-30T09:55:16;7.53;;;1.77;;
44774;SDS011;31340;51.402;0.016;2023-07-30T09:57:46;7.37;;;2.27;;
44774;SDS011;31340;51.402;0.016;2023-07-30T10:00:14;8.13;;;2.17;;
44774;SDS011;31340;51.402;0.016;2023-07-30T10:02:43;7.07;;;2.10;;
44774;SDS011;31340;51.402;0.016;2023-07-30T10:05:19;7.70;;;2.10;;
44774;SDS011;31340;51.402;0.016;2023-07-30T10:07:57;8.93;;;2.38;;
44774;SDS011;31340;51.402;0.016;2023-07-30T10:10:29;7.85;;;1.90;;
44774;SDS011;31340;51.402;0.016;2023-07-30T10:13:00;8.10;;;2.28;;
44774;SDS011;31340;51.402;0.016;2023-07-30T10:15:35;8.30;;;2.15;;
44774;SDS011;31340;51.402;0.016;2023-07-30T10:18:04;10.35;;;2.22;;
44774;SDS011;31340;51.402;0.016;2023-07-30T10:20:32;9.43;;;2.88;;
44774;SDS011;31340;51.402;0.016;2023-07-30T10:23:00;11.63;;;1.80;;
44774;SDS011;31340;51.402;0.016;2023-07-30T10:25:29;10.07;;;2.25;;
44774;SDS011;31340;51.402;0.016;2023-07-30T10:28:08;9.63;;;2.07;;
44774;SDS011;31340;51.402;0.016;2023-07-30T10:30:36;7.95;;;2.10;;
44774;SDS011;31340;51.402;0.016;2023-07-30T10:33:04;4.97;;;2.03;;
44774;SDS011;31340;51.402;0.016;2023-07-30T10:38:20;10.48;;;2.67;;
44774;SDS011;31340;51.402;0.016;2023-07-30T10:41:02;8.20;;;2.00;;
44774;SDS011;31340;51.402;0.016;2023-07-30T10:43:39;6.28;;;2.38;;
44774;SDS011;31340;51.402;0.016;2023-07-30T10:46:13;8.40;;;1.92;;
44774;SDS011;31340;51.402;0.016;2023-07-30T10:48:43;10.18;;;2.65;;
44774;SDS011;31340;51.402;0.016;2023-07-30T10:51:13;8.32;;;2.13;;
44774;SDS011;31340;51.402;0.016;2023-07-30T10:53:48;7.88;;;2.30;;
44774;SDS011;31340;51.402;0.016;2023-07-30T10:56:20;13.57;;;2.67;;
44774;SDS011;31340;51.402;0.016;2023-07-30T10:58:53;13.82;;;2.53;;
44774;SDS011;31340;51.402;0.016;2023-07-30T11:01:23;9.25;;;2.55;;
44774;SDS011;31340;51.402;0.016;2023-07-30T11:03:52;8.98;;;2.05;;
44774;SDS011;31340;51.402;0.016;2023-07-30T11:06:23;10.27;;;3.00;;
44774;SDS011;31340;51.402;0.016;2023-07-30T11:08:52;6.80;;;1.95;;
44774;SDS011;31340;51.402;0.016;2023-07-30T11:11:20;8.40;;;2.20;;
44774;SDS011;31340;51.402;0.016;2023-07-30T11:13:47;11.27;;;2.40;;
44774;SDS011;31340;51.402;0.016;2023-07-30T11:16:15;10.55;;;2.05;;
44774;SDS011;31340;51.402;0.016;2023-07-30T11:18:44;10.98;;;2.28;;
44774;SDS011;31340;51.402;0.016;2023-07-30T11:21:14;10.15;;;2.22;;
44774;SDS011;31340;51.402;0.016;2023-07-30T11:23:43;9.93;;;2.17;;
44774;SDS011;31340;51.402;0.016;2023-07-30T11:26:19;8.98;;;2.35;;
44774;SDS011;31340;51.402;0.016;2023-07-30T11:28:47;9.48;;;2.38;;
44774;SDS011;31340;51.402;0.016;2023-07-30T11:31:18;8.38;;;2.50;;
44774;SDS011;31340;51.402;0.016;2023-07-30T11:33:48;5.90;;;2.00;;
44774;SDS011;31340;51.402;0.016;2023-07-30T11:38:48;11.00;;;2.40;;
44774;SDS011;31340;51.402;0.016;2023-07-30T11:41:16;9.05;;;2.42;;
44774;SDS011;31340;51.402;0.016;2023-07-30T11:43:45;6.57;;;2.33;;
44774;SDS011;31340;51.402;0.016;2023-07-30T11:46:14;9.68;;;2.13;;
44774;SDS011;31340;51.402;0.016;2023-07-30T11:48:43;5.77;;;2.23;;
44774;SDS011;31340;51.402;0.016;2023-07-30T11:53:58;2.95;;;1.67;;
44774;SDS011;31340;51.402;0.016;2023-07-30T11:56:29;3.45;;;1.50;;
44774;SDS011;31340;51.402;0.016;2023-07-30T11:59:06;3.13;;;1.30;;
44774;SDS011;31340;51.402;0.016;2023-07-30T12:01:34;2.53;;;1.17;;
44774;SDS011;31340;51.402;0.016;2023-07-30T12:04:05;4.00;;;1.30;;
44774;SDS011;31340;51.402;0.016;2023-07-30T12:06:49;3.08;;;1.00;;
44774;SDS011;31340;51.402;0.016;2023-07-30T12:09:22;2.50;;;1.15;;
44774;SDS011;31340;51.402;0.016;2023-07-30T12:11:54;2.40;;;0.88;;
44774;SDS011;31340;51.402;0.016;2023-07-30T12:14:24;3.60;;;1.20;;
44774;SDS011;31340;51.402;0.016;2023-07-30T12:17:00;2.33;;;1.02;;
44774;SDS011;31340;51.402;0.016;2023-07-30T12:19:27;3.63;;;1.00;;
44774;SDS011;31340;51.402;0.016;2023-07-30T12:21:55;2.30;;;1.20;;
44774;SDS011;31340;51.402;0.016;2023-07-30T12:24:23;2.50;;;1.15;;
44774;SDS011;31340;51.402;0.016;2023-07-30T12:26:50;6.65;;;1.58;;
44774;SDS011;31340;51.402;0.016;2023-07-30T12:29:22;2.60;;;1.63;;
44774;SDS011;31340;51.402;0.016;2023-07-30T12:31:49;5.88;;;1.73;;
44774;SDS011;31340;51.402;0.016;2023-07-30T12:34:22;6.20;;;1.48;;
44774;SDS011;31340;51.402;0.016;2023-07-30T12:36:50;5.60;;;2.10;;
44774;SDS011;31340;51.402;0.016;2023-07-30T12:39:17;1.83;;;1.17;;
44774;SDS011;31340;51.402;0.016;2023-07-30T12:41:45;3.45;;;1.40;;
44774;SDS011;31340;51.402;0.016;2023-07-30T12:44:13;3.22;;;1.40;;
44774;SDS011;31340;51.402;0.016;2023-07-30T12:46:40;3.70;;;1.63;;
44774;SDS011;31340;51.402;0.016;2023-07-30T12:49:08;5.57;;;1.30;;
44774;SDS011;31340;51.402;0.016;2023-07-30T12:51:35;4.43;;;1.63;;
44774;SDS011;31340;51.402;0.016;2023-07-30T12:54:04;2.88;;;1.60;;
44774;SDS011;31340;51.402;0.016;2023-07-30T12:56:34;4.18;;;1.30;;
44774;SDS011;31340;51.402;0.016;2023-07-30T12:59:03;5.03;;;1.80;;
44774;SDS011;31340;51.402;0.016;2023-07-30T13:01:31;3.53;;;1.95;;
44774;SDS011;31340;51.402;0.016;2023-07-30T13:03:59;3.35;;;1.52;;
44774;SDS011;31340;51.402;0.016;2023-07-30T13:06:27;3.88;;;2.25;;
44774;SDS011;31340;51.402;0.016;2023-07-30T13:08:55;3.38;;;1.40;;
44774;SDS011;31340;51.402;0.016;2023-07-30T13:11:22;2.58;;;1.73;;
44774;SDS011;31340;51.402;0.016;2023-07-30T13:13:50;4.55;;;2.05;;
44774;SDS011;31340;51.402;0.016;2023-07-30T13:16:18;4.03;;;2.28;;
44774;SDS011;31340;51.402;0.016;2023-07-30T13:18:46;4.22;;;2.15;;
44774;SDS011;31340;51.402;0.016;2023-07-30T13:21:14;2.15;;;1.70;;
44774;SDS011;31340;51.402;0.016;2023-07-30T13:23:41;3.13;;;1.88;;
44774;SDS011;31340;51.402;0.016;2023-07-30T13:26:09;3.30;;;1.75;;
44774;SDS011;31340;51.402;0.016;2023-07-30T13:28:37;5.70;;;2.05;;
44774;SDS011;31340;51.402;0.016;2023-07-30T13:31:04;3.25;;;2.10;;
44774;SDS011;31340;51.402;0.016;2023-07-30T13:33:32;4.75;;;2.10;;
44774;SDS011;31340;51.402;0.016;2023-07-30T13:36:00;4.15;;;2.05;;
44774;SDS011;31340;51.402;0.016;2023-07-30T13:38:27;4.28;;;1.73;;
44774;SDS011;31340;51.402;0.016;2023-07-30T13:40:55;4.68;;;2.08;;
44774;SDS011;31340;51.402;0.016;2023-07-30T13:43:23;3.67;;;2.15;;
44774;SDS011;31340;51.402;0.016;2023-07-30T13:45:51;3.55;;;1.77;;
44774;SDS011;31340;51.402;0.016;2023-07-30T13:48:20;2.97;;;1.90;;
44774;SDS011;31340;51.402;0.016;2023-07-30T13:50:48;4.07;;;1.90;;
44774;SDS011;31340;51.402;0.016;2023-07-30T13:53:15;4.63;;;2.17;;
44774;SDS011;31340;51.402;0.016;2023-07-30T13:55:43;5.57;;;2.30;;
44774;SDS011;31340;51.402;0.016;2023-07-30T13:58:12;8.07;;;2.45;;
44774;SDS011;31340;51.402;0.016;2023-07-30T14:00:40;7.18;;;2.85;;
44774;SDS011;31340;51.402;0.016;2023-07-30T14:03:11;5.40;;;2.17;;
44774;SDS011;31340;51.402;0.016;2023-07-30T14:05:40;4.55;;;2.40;;
44774;SDS011;31340;51.402;0.016;2023-07-30T14:08:07;5.25;;;2.45;;
44774;SDS011;31340;51.402;0.016;2023-07-30T14:10:35;6.00;;;2.60;;
44774;SDS011;31340;51.402;0.016;2023-07-30T14:13:03;7.22;;;2.75;;
44774;SDS011;31340;51.402;0.016;2023-07-30T14:15:31;5.82;;;2.70;;
44774;SDS011;31340;51.402;0.016;2023-07-30T14:17:58;7.95;;;3.05;;
44774;SDS011;31340;51.402;0.016;2023-07-30T14:20:26;7.03;;;3.42;;
44774;SDS011;31340;51.402;0.016;2023-07-30T14:22:54;10.50;;;3.78;;
44774;SDS011;31340;51.402;0.016;2023-07-30T14:25:21;8.52;;;3.47;;
44774;SDS011;31340;51.402;0.016;2023-07-30T14:27:49;10.77;;;4.93;;
44774;SDS011;31340;51.402;0.016;2023-07-30T14:30:16;9.55;;;3.70;;
44774;SDS011;31340;51.402;0.016;2023-07-30T14:32:44;7.00;;;3.10;;
44774;SDS011;31340;51.402;0.016;2023-07-30T14:35:12;9.15;;;3.42;;
44774;SDS011;31340;51.402;0.016;2023-07-30T14:37:39;5.85;;;3.13;;
44774;SDS011;31340;51.402;0.016;2023-07-30T14:40:07;5.82;;;3.15;;
44774;SDS011;31340;51.402;0.016;2023-07-30T14:42:35;7.05;;;3.38;;
44774;SDS011;31340;51.402;0.016;2023-07-30T14:45:03;5.78;;;2.72;;
44774;SDS011;31340;51.402;0.016;2023-07-30T14:47:30;8.85;;;3.13;;
44774;SDS011;31340;51.402;0.016;2023-07-30T14:50:00;3.58;;;2.28;;
44774;SDS011;31340;51.402;0.016;2023-07-30T14:52:29;5.05;;;2.20;;
44774;SDS011;31340;51.402;0.016;2023-07-30T14:54:56;4.20;;;1.77;;
44774;SDS011;31340;51.402;0.016;2023-07-30T14:57:24;4.95;;;2.10;;
44774;SDS011;31340;51.402;0.016;2023-07-30T14:59:52;3.25;;;1.67;;
44774;SDS011;31340;51.402;0.016;2023-07-30T15:02:20;3.30;;;1.67;;